createdAt,value
2022-11-16T00:02:20.257Z,97896.09
2022-11-16T00:04:46.883Z,97893.75
2022-11-16T00:07:13.539Z,97892.19
2022-11-16T00:09:40.121Z,97894.44
2022-11-16T00:12:09.732Z,97897.16
2022-11-16T00:14:36.779Z,97899.06
2022-11-16T00:17:04.664Z,97894.44
2022-11-16T00:19:31.502Z,97895.22
2022-11-16T00:21:58.335Z,97888.56
2022-11-16T00:24:24.902Z,97911.38
2022-11-16T00:26:54.427Z,97917.84
2022-11-16T00:29:24.019Z,97917.06
2022-11-16T00:31:51.500Z,97908.91
2022-11-16T00:34:18.536Z,97908.84
2022-11-16T00:36:45.693Z,97898.34
2022-11-16T00:39:13.620Z,97880.13
2022-11-16T00:41:40.816Z,97878.56
2022-11-16T00:44:07.555Z,97875.50
2022-11-16T00:46:34.142Z,97873.94
2022-11-16T00:49:00.685Z,97892.47
2022-11-16T00:51:27.282Z,97874.53
2022-11-16T00:53:53.935Z,97860.53
2022-11-16T00:56:20.555Z,97887.50
2022-11-16T00:58:47.228Z,97884.28
2022-11-16T01:01:14.328Z,97877.19
2022-11-16T01:03:41.058Z,97892.19
2022-11-16T01:06:10.373Z,97904.84
2022-11-16T01:08:38.733Z,97897.06
2022-11-16T01:11:24.934Z,97904.28
2022-11-16T01:13:52.118Z,97892.91
2022-11-16T01:16:21.490Z,97905.22
2022-11-16T01:18:53.465Z,97915.16
2022-11-16T01:21:20.918Z,97908.84
2022-11-16T01:23:47.716Z,97905.56
2022-11-16T01:26:14.240Z,97922.16
2022-11-16T01:28:40.799Z,97922.38
2022-11-16T01:31:09.181Z,97913.38
2022-11-16T01:33:35.959Z,97913.59
2022-11-16T01:36:03.101Z,97922.19
2022-11-16T01:38:30.269Z,97916.75
2022-11-16T01:40:56.971Z,97910.53
2022-11-16T01:43:25.550Z,97920.44
2022-11-16T01:45:52.592Z,97916.97
2022-11-16T01:48:30.205Z,97919.53
2022-11-16T01:50:57.892Z,97931.63
2022-11-16T01:53:24.994Z,97929.69
2022-11-16T01:55:52.332Z,97929.25
2022-11-16T01:58:23.185Z,97919.53
2022-11-16T02:00:49.836Z,97916.03
2022-11-16T02:03:20.915Z,97918.75
2022-11-16T02:06:12.406Z,97918.19
2022-11-16T02:09:18.975Z,97916.72
2022-11-16T02:12:02.019Z,97925.97
2022-11-16T02:14:28.487Z,97930.25
2022-11-16T02:17:23.791Z,97937.25
2022-11-16T02:20:18.788Z,97941.97
2022-11-16T02:23:07.837Z,97945.03
2022-11-16T02:25:43.115Z,97933.09
2022-11-16T02:28:37.635Z,97927.34
2022-11-16T02:31:07.398Z,97927.66
2022-11-16T02:33:39.029Z,97924.06
2022-11-16T02:36:10.021Z,97927.44
2022-11-16T02:38:40.551Z,97933.88
2022-11-16T02:41:12.035Z,97931.50
2022-11-16T02:43:43.759Z,97942.66
2022-11-16T02:46:18.589Z,97949.88
2022-11-16T02:48:50.832Z,97951.47
2022-11-16T02:51:18.809Z,97952.25
2022-11-16T02:54:04.287Z,97947.94
2022-11-16T02:56:40.214Z,97943.00
2022-11-16T02:59:13.041Z,97946.81
2022-11-16T03:01:47.694Z,97946.72
2022-11-16T03:04:18.324Z,97942.31
2022-11-16T03:06:48.122Z,97950.31
2022-11-16T03:09:24.598Z,97947.38
2022-11-16T03:12:01.056Z,97952.34
2022-11-16T03:14:33.541Z,97957.16
2022-11-16T03:17:02.003Z,97956.56
2022-11-16T03:19:44.076Z,97963.34
2022-11-16T03:22:28.738Z,97959.28
2022-11-16T03:24:55.775Z,97961.84
2022-11-16T03:27:30.353Z,97965.53
2022-11-16T03:30:06.200Z,97963.50
2022-11-16T03:32:46.210Z,97965.66
2022-11-16T03:35:31.958Z,97961.53
2022-11-16T03:38:00.719Z,97968.44
2022-11-16T03:40:30.859Z,97960.50
2022-11-16T03:43:00.227Z,97979.63
2022-11-16T03:45:27.376Z,97970.16
2022-11-16T03:47:53.924Z,97979.25
2022-11-16T03:50:20.571Z,97975.94
2022-11-16T03:52:47.115Z,97983.47
2022-11-16T03:55:13.959Z,97981.75
2022-11-16T03:57:40.484Z,97988.59
2022-11-16T04:00:08.212Z,97982.63
2022-11-16T04:02:34.721Z,97993.56
2022-11-16T04:05:19.604Z,97996.47
2022-11-16T04:08:07.061Z,97999.34
2022-11-16T04:10:52.486Z,98014.63
2022-11-16T04:13:45.412Z,98013.72
2022-11-16T04:16:31.008Z,98020.69
2022-11-16T04:19:15.905Z,98023.41
2022-11-16T04:22:06.014Z,98020.25
2022-11-16T04:24:37.147Z,98016.13
2022-11-16T04:27:27.400Z,98020.28
2022-11-16T04:29:56.268Z,98022.63
2022-11-16T04:32:41.609Z,98022.84
2022-11-16T04:35:46.856Z,98015.38
2022-11-16T04:38:13.768Z,98019.84
2022-11-16T04:40:40.619Z,98025.09
2022-11-16T04:43:07.487Z,98021.13
2022-11-16T04:45:52.962Z,98027.19
2022-11-16T04:48:20.329Z,98024.03
2022-11-16T04:50:48.767Z,98019.28
2022-11-16T04:53:15.398Z,98033.88
2022-11-16T04:55:41.973Z,98025.63
2022-11-16T04:58:08.511Z,98029.78
2022-11-16T05:00:35.035Z,98022.81
2022-11-16T05:03:04.033Z,98028.22
2022-11-16T05:05:30.542Z,98021.22
2022-11-16T05:07:57.122Z,98025.03
2022-11-16T05:10:23.676Z,98014.91
2022-11-16T05:12:50.268Z,98016.34
2022-11-16T05:15:20.156Z,98005.38
2022-11-16T05:17:47.347Z,98007.97
2022-11-16T05:20:32.805Z,98009.88
2022-11-16T05:22:59.755Z,98009.75
2022-11-16T05:25:31.260Z,98014.50
2022-11-16T05:28:00.634Z,98026.25
2022-11-16T05:30:28.697Z,98012.97
2022-11-16T05:32:55.209Z,98017.88
2022-11-16T05:35:21.721Z,98022.34
2022-11-16T05:37:48.249Z,98016.63
2022-11-16T05:40:15.171Z,98017.25
2022-11-16T05:42:41.744Z,98028.53
2022-11-16T05:45:08.538Z,98029.81
2022-11-16T05:47:35.125Z,98035.53
2022-11-16T05:50:01.850Z,98032.03
2022-11-16T05:52:28.419Z,98037.59
2022-11-16T05:54:54.929Z,98036.47
2022-11-16T05:57:21.517Z,98043.41
2022-11-16T05:59:48.048Z,98046.31
2022-11-16T06:02:14.570Z,98045.16
2022-11-16T06:04:41.128Z,98040.00
2022-11-16T06:07:07.744Z,98047.28
2022-11-16T06:09:35.510Z,98037.91
2022-11-16T06:12:02.105Z,98050.13
2022-11-16T06:14:28.593Z,98043.97
2022-11-16T06:16:55.185Z,98048.44
2022-11-16T06:19:21.883Z,98041.91
2022-11-16T06:21:48.364Z,98038.97
2022-11-16T06:24:14.896Z,98042.13
2022-11-16T06:26:41.421Z,98041.91
2022-11-16T06:29:08.482Z,98044.19
2022-11-16T06:31:35.012Z,98044.69
2022-11-16T06:34:01.562Z,98048.28
2022-11-16T06:36:28.267Z,98043.47
2022-11-16T06:38:54.834Z,98050.47
2022-11-16T06:41:21.724Z,98043.34
2022-11-16T06:43:48.240Z,98045.34
2022-11-16T06:46:14.791Z,98047.50
2022-11-16T06:48:41.372Z,98047.72
2022-11-16T06:51:08.053Z,98045.22
2022-11-16T06:53:36.231Z,98039.13
2022-11-16T06:56:04.344Z,98039.13
2022-11-16T06:58:32.268Z,98035.06
2022-11-16T07:01:09.733Z,98044.31
2022-11-16T07:03:36.510Z,98045.91
2022-11-16T07:06:08.441Z,98047.97
2022-11-16T07:08:35.808Z,98059.28
2022-11-16T07:11:04.772Z,98057.94
2022-11-16T07:13:35.722Z,98064.22
2022-11-16T07:16:07.677Z,98057.03
2022-11-16T07:18:36.301Z,98063.16
2022-11-16T07:21:21.247Z,98055.72
2022-11-16T07:23:47.805Z,98064.53
2022-11-16T07:26:14.318Z,98074.44
2022-11-16T07:28:46.633Z,98067.91
2022-11-16T07:31:15.663Z,98074.22
2022-11-16T07:33:42.228Z,98072.97
2022-11-16T07:36:11.892Z,98074.16
2022-11-16T07:38:39.144Z,98076.69
2022-11-16T07:41:09.166Z,98080.75
2022-11-16T07:43:35.713Z,98082.25
2022-11-16T07:46:45.326Z,98080.50
2022-11-16T07:49:00.110Z,98072.97
2022-11-16T07:51:26.952Z,98078.19
2022-11-16T07:53:58.084Z,98072.66
2022-11-16T07:56:25.256Z,98082.25
2022-11-16T07:58:51.764Z,98077.47
2022-11-16T08:01:19.061Z,98086.25
2022-11-16T08:03:46.427Z,98083.13
2022-11-16T08:06:12.931Z,98086.22
2022-11-16T08:08:39.535Z,98082.25
2022-11-16T08:11:08.788Z,98083.19
2022-11-16T08:13:37.407Z,98088.81
2022-11-16T08:16:10.468Z,98084.31
2022-11-16T08:18:37.774Z,98082.41
2022-11-16T08:21:06.127Z,98083.72
2022-11-16T08:23:33.491Z,98073.16
2022-11-16T08:26:05.217Z,98074.81
2022-11-16T08:28:32.866Z,98075.88
2022-11-16T08:31:00.868Z,98080.34
2022-11-16T08:33:29.296Z,98081.28
2022-11-16T08:35:55.880Z,98087.38
2022-11-16T08:38:22.430Z,98082.94
2022-11-16T08:40:50.877Z,98079.03
2022-11-16T08:43:17.428Z,98081.38
2022-11-16T08:45:48.074Z,98079.19
2022-11-16T08:48:14.746Z,98073.78
2022-11-16T08:51:02.410Z,98083.25
2022-11-16T08:53:27.850Z,98081.91
2022-11-16T08:55:54.359Z,98077.63
2022-11-16T08:58:20.867Z,98076.41
2022-11-16T09:00:47.426Z,98088.13
2022-11-16T09:03:13.924Z,98087.22
2022-11-16T09:05:42.567Z,98093.31
2022-11-16T09:08:09.156Z,98088.34
2022-11-16T09:10:37.537Z,98096.50
2022-11-16T09:13:04.121Z,98093.31
2022-11-16T09:15:31.817Z,98094.81
2022-11-16T09:17:58.360Z,98097.53
2022-11-16T09:20:26.372Z,98080.59
2022-11-16T09:22:52.916Z,98084.22
2022-11-16T09:25:19.500Z,98092.34
2022-11-16T09:27:46.005Z,98079.16
2022-11-16T09:30:12.835Z,98097.91
2022-11-16T09:32:39.377Z,98091.31
2022-11-16T09:35:06.539Z,98091.31
2022-11-16T09:37:33.111Z,98088.97
2022-11-16T09:39:59.660Z,98086.47
2022-11-16T09:42:46.026Z,98088.72
2022-11-16T09:45:36.746Z,98099.09
2022-11-16T09:48:06.362Z,98093.69
2022-11-16T09:50:44.388Z,98095.13
2022-11-16T09:53:33.581Z,98094.72
2022-11-16T09:56:08.803Z,98093.34
2022-11-16T09:59:04.476Z,98084.53
2022-11-16T10:01:52.823Z,98087.13
2022-11-16T10:04:39.256Z,98081.03
2022-11-16T10:07:15.974Z,98079.47
2022-11-16T10:09:44.323Z,98071.34
2022-11-16T10:12:46.329Z,98077.44
2022-11-16T10:15:34.490Z,98075.19
2022-11-16T10:18:19.840Z,98070.44
2022-11-16T10:21:20.580Z,98073.16
2022-11-16T10:23:56.173Z,98063.88
2022-11-16T10:26:50.457Z,98076.31
2022-11-16T10:29:56.137Z,98067.72
2022-11-16T10:32:28.979Z,98063.31
2022-11-16T10:34:56.881Z,98063.66
2022-11-16T10:37:31.070Z,98063.22
2022-11-16T10:39:58.142Z,98061.84
2022-11-16T10:42:44.316Z,98054.38
2022-11-16T10:45:11.230Z,98047.84
2022-11-16T10:47:57.086Z,98034.53
2022-11-16T10:50:33.102Z,98040.66
2022-11-16T10:53:00.755Z,98024.94
2022-11-16T10:55:28.753Z,98024.38
2022-11-16T10:58:03.866Z,98023.72
2022-11-16T11:00:51.774Z,98015.25
2022-11-16T11:03:32.331Z,98020.66
2022-11-16T11:05:59.786Z,98020.00
2022-11-16T11:08:30.675Z,98017.41
2022-11-16T11:11:23.556Z,98018.97
2022-11-16T11:14:05.042Z,98018.06
2022-11-16T11:16:32.004Z,98014.34
2022-11-16T11:19:17.758Z,98011.41
2022-11-16T11:21:44.955Z,98010.50
2022-11-16T11:24:43.258Z,97991.63
2022-11-16T11:27:05.463Z,97994.78
2022-11-16T11:29:35.249Z,97995.59
2022-11-16T11:32:08.450Z,97984.41
2022-11-16T11:34:47.565Z,97979.31
2022-11-16T11:37:37.233Z,97986.00
2022-11-16T11:40:09.806Z,97980.13
2022-11-16T11:42:41.369Z,97987.56
2022-11-16T11:45:15.177Z,97985.88
2022-11-16T11:47:58.589Z,97981.59
2022-11-16T11:50:50.513Z,97978.56
2022-11-16T11:53:41.309Z,97978.22
2022-11-16T11:56:10.400Z,97979.00
2022-11-16T11:58:39.593Z,97988.72
2022-11-16T12:01:37.714Z,97986.59
2022-11-16T12:04:32.548Z,97986.03
2022-11-16T12:07:05.432Z,97976.75
2022-11-16T12:09:49.182Z,97971.81
2022-11-16T12:12:24.576Z,97961.41
2022-11-16T12:15:21.482Z,97963.69
2022-11-16T12:18:13.412Z,97961.84
2022-11-16T12:20:50.149Z,97960.38
2022-11-16T12:23:39.547Z,97953.47
2022-11-16T12:26:20.760Z,97951.22
2022-11-16T12:29:29.144Z,97940.06
2022-11-16T12:32:14.421Z,97935.41
2022-11-16T12:35:02.156Z,97938.44
2022-11-16T12:37:49.614Z,97934.69
2022-11-16T12:40:34.862Z,97940.56
2022-11-16T12:43:20.240Z,97936.03
2022-11-16T12:46:01.044Z,97939.28
2022-11-16T12:48:30.481Z,97936.69
2022-11-16T12:51:20.200Z,97929.44
2022-11-16T12:53:59.015Z,97932.03
2022-11-16T12:56:34.253Z,97937.03
2022-11-16T12:59:16.976Z,97932.59
2022-11-16T13:02:21.826Z,97941.16
2022-11-16T13:04:57.575Z,97934.50
2022-11-16T13:07:39.320Z,97924.03
2022-11-16T13:10:13.881Z,97914.75
2022-11-16T13:12:43.306Z,97911.91
2022-11-16T13:15:19.270Z,97903.63
2022-11-16T13:18:07.964Z,97901.72
2022-11-16T13:20:53.256Z,97904.88
2022-11-16T13:23:32.301Z,97906.81
2022-11-16T13:26:13.280Z,97906.25
2022-11-16T13:28:48.967Z,97891.38
2022-11-16T13:31:36.232Z,97897.50
2022-11-16T13:34:07.146Z,97895.91
2022-11-16T13:36:45.497Z,97894.34
2022-11-16T13:39:22.264Z,97879.88
2022-11-16T13:41:51.893Z,97883.28
2022-11-16T13:44:20.291Z,97873.56
2022-11-16T13:46:57.317Z,97870.78
2022-11-16T13:49:36.710Z,97872.06
2022-11-16T13:52:28.749Z,97881.34
2022-11-16T13:54:56.957Z,97865.06
2022-11-16T13:57:32.583Z,97872.78
2022-11-16T14:00:02.178Z,97872.41
2022-11-16T14:02:28.652Z,97872.94
2022-11-16T14:05:01.326Z,97866.56
2022-11-16T14:07:46.477Z,97853.44
2022-11-16T14:10:34.725Z,97851.00
2022-11-16T14:13:05.762Z,97847.41
2022-11-16T14:15:37.379Z,97853.44
2022-11-16T14:18:31.669Z,97856.66
2022-11-16T14:21:04.999Z,97849.28
2022-11-16T14:23:53.383Z,97843.00
2022-11-16T14:26:25.042Z,97834.41
2022-11-16T14:29:08.710Z,97839.28
2022-11-16T14:32:01.392Z,97828.59
2022-11-16T14:34:31.242Z,97829.41
2022-11-16T14:36:59.630Z,97818.13
2022-11-16T14:39:43.676Z,97825.25
2022-11-16T14:42:21.793Z,97820.63
2022-11-16T14:44:50.092Z,97828.41
2022-11-16T14:47:27.099Z,97823.31
2022-11-16T14:49:56.373Z,97824.56
2022-11-16T14:52:34.344Z,97819.59
2022-11-16T14:55:06.470Z,97820.03
2022-11-16T14:57:32.945Z,97819.03
2022-11-16T15:00:18.069Z,97812.47
2022-11-16T15:02:51.842Z,97805.16
2022-11-16T15:05:22.165Z,97796.59
2022-11-16T15:07:52.445Z,97789.59
2022-11-16T15:10:25.665Z,97796.47
2022-11-16T15:12:55.135Z,97794.13
2022-11-16T15:15:30.244Z,97788.59
2022-11-16T15:17:59.628Z,97784.66
2022-11-16T15:20:29.417Z,97775.41
2022-11-16T15:22:58.891Z,97783.09
2022-11-16T15:25:31.276Z,97770.34
2022-11-16T15:28:01.373Z,97769.53
2022-11-16T15:30:37.140Z,97775.66
2022-11-16T15:33:09.727Z,97775.53
2022-11-16T15:35:38.030Z,97774.31
2022-11-16T15:38:32.369Z,97773.44
2022-11-16T15:41:04.378Z,97769.16
2022-11-16T15:43:45.086Z,97766.44
2022-11-16T15:46:23.441Z,97767.91
2022-11-16T15:48:50.511Z,97763.31
2022-11-16T15:51:20.138Z,97768.72
2022-11-16T15:53:55.735Z,97767.81
2022-11-16T15:56:25.223Z,97756.09
2022-11-16T15:58:57.691Z,97753.63
2022-11-16T16:01:25.845Z,97748.22
2022-11-16T16:04:00.533Z,97747.78
2022-11-16T16:06:55.594Z,97754.19
2022-11-16T16:09:26.748Z,97757.03
2022-11-16T16:11:55.414Z,97753.09
2022-11-16T16:14:24.468Z,97765.00
2022-11-16T16:16:57.910Z,97751.84
2022-11-16T16:19:33.642Z,97747.34
2022-11-16T16:22:00.561Z,97749.59
2022-11-16T16:24:34.715Z,97736.72
2022-11-16T16:27:01.295Z,97731.31
2022-11-16T16:29:28.566Z,97727.69
2022-11-16T16:31:58.712Z,97725.22
2022-11-16T16:34:25.217Z,97729.88
2022-11-16T16:36:51.736Z,97720.84
2022-11-16T16:39:18.305Z,97720.75
2022-11-16T16:41:45.114Z,97708.78
2022-11-16T16:44:15.381Z,97708.34
2022-11-16T16:46:42.002Z,97705.66
2022-11-16T16:49:08.751Z,97706.34
2022-11-16T16:51:35.297Z,97693.50
2022-11-16T16:54:01.878Z,97696.09
2022-11-16T16:56:28.575Z,97688.31
2022-11-16T16:58:55.211Z,97685.16
2022-11-16T17:01:22.019Z,97680.44
2022-11-16T17:03:48.783Z,97667.25
2022-11-16T17:06:15.460Z,97667.25
2022-11-16T17:08:42.115Z,97665.66
2022-11-16T17:11:10.374Z,97656.34
2022-11-16T17:13:37.189Z,97655.44
2022-11-16T17:16:05.782Z,97657.72
2022-11-16T17:18:32.632Z,97655.91
2022-11-16T17:21:07.115Z,97658.84
2022-11-16T17:23:35.130Z,97652.66
2022-11-16T17:26:09.680Z,97651.06
2022-11-16T17:28:36.739Z,97641.81
2022-11-16T17:31:05.448Z,97640.94
2022-11-16T17:33:39.890Z,97652.44
2022-11-16T17:36:09.347Z,97649.75
2022-11-16T17:38:36.603Z,97652.00
2022-11-16T17:41:12.997Z,97651.22
2022-11-16T17:43:41.377Z,97634.53
2022-11-16T17:46:10.907Z,97628.69
2022-11-16T17:48:39.227Z,97625.19
2022-11-16T17:51:06.644Z,97623.63
2022-11-16T17:53:35.599Z,97626.66
2022-11-16T17:56:04.587Z,97624.19
2022-11-16T17:58:32.595Z,97618.34
2022-11-16T18:01:00.699Z,97611.69
2022-11-16T18:03:28.507Z,97614.31
2022-11-16T18:06:11.144Z,97623.00
2022-11-16T18:08:38.127Z,97629.53
2022-11-16T18:11:10.593Z,97637.19
2022-11-16T18:13:37.615Z,97639.88
2022-11-16T18:16:05.828Z,97651.59
2022-11-16T18:18:33.933Z,97651.72
2022-11-16T18:21:01.462Z,97649.44
2022-11-16T18:23:29.350Z,97649.44
2022-11-16T18:25:56.468Z,97645.63
2022-11-16T18:28:23.937Z,97644.94
2022-11-16T18:30:50.643Z,97648.09
2022-11-16T18:33:17.418Z,97642.69
2022-11-16T18:35:44.677Z,97646.06
2022-11-16T18:38:14.057Z,97631.75
2022-11-16T18:40:40.714Z,97622.94
2022-11-16T18:43:12.885Z,97623.75
2022-11-16T18:45:39.565Z,97630.41
2022-11-16T18:48:06.309Z,97624.19
2022-11-16T18:50:33.076Z,97635.81
2022-11-16T18:52:59.735Z,97633.13
2022-11-16T18:55:26.593Z,97630.72
2022-11-16T18:57:53.284Z,97631.06
2022-11-16T19:00:20.365Z,97630.72
2022-11-16T19:02:46.945Z,97634.13
2022-11-16T19:05:13.611Z,97630.97
2022-11-16T19:07:40.465Z,97629.41
2022-11-16T19:10:07.944Z,97622.88
2022-11-16T19:12:34.575Z,97622.50
2022-11-16T19:15:01.197Z,97614.75
2022-11-16T19:17:28.025Z,97609.34
2022-11-16T19:19:54.731Z,97608.22
2022-11-16T19:22:21.479Z,97601.25
2022-11-16T19:24:48.251Z,97607.09
2022-11-16T19:27:16.842Z,97596.72
2022-11-16T19:29:43.741Z,97599.53
2022-11-16T19:32:10.585Z,97587.25
2022-11-16T19:34:37.271Z,97594.22
2022-11-16T19:37:04.128Z,97600.44
2022-11-16T19:39:31.288Z,97583.41
2022-11-16T19:41:58.167Z,97581.84
2022-11-16T19:44:25.215Z,97588.81
2022-11-16T19:46:54.776Z,97584.53
2022-11-16T19:49:24.065Z,97581.84
2022-11-16T19:51:51.126Z,97580.25
2022-11-16T19:54:18.177Z,97589.50
2022-11-16T19:56:50.561Z,97582.53
2022-11-16T19:59:20.640Z,97580.94
2022-11-16T20:01:47.582Z,97582.06
2022-11-16T20:04:15.627Z,97577.81
2022-11-16T20:06:43.110Z,97573.53
2022-11-16T20:09:12.535Z,97568.44
2022-11-16T20:11:41.744Z,97560.69
2022-11-16T20:14:12.120Z,97557.56
2022-11-16T20:16:42.115Z,97556.63
2022-11-16T20:19:09.895Z,97545.75
2022-11-16T20:21:39.138Z,97541.78
2022-11-16T20:24:09.185Z,97540.91
2022-11-16T20:26:37.410Z,97536.19
2022-11-16T20:29:04.410Z,97540.72
2022-11-16T20:31:33.516Z,97532.16
2022-11-16T20:34:03.090Z,97520.44
2022-11-16T20:36:31.706Z,97514.16
2022-11-16T20:39:00.171Z,97512.56
2022-11-16T20:41:29.048Z,97502.44
2022-11-16T20:44:01.796Z,97503.59
2022-11-16T20:46:33.652Z,97501.56
2022-11-16T20:49:03.838Z,97491.09
2022-11-16T20:51:31.035Z,97488.75
2022-11-16T20:53:58.612Z,97488.75
2022-11-16T20:56:27.426Z,97485.59
2022-11-16T20:58:54.998Z,97477.50
2022-11-16T21:01:32.158Z,97478.94
2022-11-16T21:04:04.310Z,97482.47
2022-11-16T21:06:31.437Z,97470.25
2022-11-16T21:08:58.917Z,97464.16
2022-11-16T21:11:29.032Z,97452.25
2022-11-16T21:14:14.506Z,97442.25
2022-11-16T21:16:41.735Z,97437.63
2022-11-16T21:19:08.661Z,97431.13
2022-11-16T21:21:35.631Z,97431.91
2022-11-16T21:24:02.499Z,97427.31
2022-11-16T21:26:31.465Z,97423.03
2022-11-16T21:28:59.479Z,97408.59
2022-11-16T21:31:29.941Z,97400.84
2022-11-16T21:33:57.575Z,97386.09
2022-11-16T21:36:26.589Z,97393.88
2022-11-16T21:38:54.940Z,97388.38
2022-11-16T21:41:23.612Z,97380.69
2022-11-16T21:43:50.593Z,97378.34
2022-11-16T21:46:21.424Z,97373.72
2022-11-16T21:48:48.460Z,97371.81
2022-11-16T21:51:17.621Z,97373.72
2022-11-16T21:53:44.882Z,97361.03
2022-11-16T21:56:16.599Z,97368.00
2022-11-16T21:58:43.878Z,97362.59
2022-11-16T22:01:12.219Z,97347.16
2022-11-16T22:03:39.546Z,97341.75
2022-11-16T22:06:26.470Z,97329.84
2022-11-16T22:08:53.128Z,97312.84
2022-11-16T22:11:22.000Z,97312.06
2022-11-16T22:13:49.758Z,97301.25
2022-11-16T22:16:18.280Z,97305.88
2022-11-16T22:18:44.962Z,97302.38
2022-11-16T22:21:11.787Z,97301.25
2022-11-16T22:23:38.887Z,97306.66
2022-11-16T22:26:08.186Z,97309.78
2022-11-16T22:28:36.052Z,97289.75
2022-11-16T22:31:13.834Z,97276.25
2022-11-16T22:33:40.712Z,97267.50
2022-11-16T22:36:09.339Z,97260.63
2022-11-16T22:38:36.383Z,97261.44
2022-11-16T22:41:03.136Z,97253.75
2022-11-16T22:43:31.175Z,97253.41
2022-11-16T22:46:02.695Z,97246.09
2022-11-16T22:48:37.640Z,97243.41
2022-11-16T22:51:06.889Z,97228.75
2022-11-16T22:53:34.289Z,97235.28
2022-11-16T22:56:05.622Z,97208.97
2022-11-16T22:58:32.328Z,97206.63
2022-11-16T23:00:58.832Z,97198.88
2022-11-16T23:03:25.362Z,97192.66
2022-11-16T23:05:51.915Z,97192.97
2022-11-16T23:08:18.452Z,97191.06
2022-11-16T23:11:03.725Z,97188.06
2022-11-16T23:13:48.869Z,97167.56
2022-11-16T23:16:15.453Z,97168.66
2022-11-16T23:18:41.979Z,97157.44
2022-11-16T23:21:27.406Z,97148.47
2022-11-16T23:24:12.394Z,97149.16
2022-11-16T23:26:57.734Z,97136.03
2022-11-16T23:29:24.249Z,97122.88
2022-11-16T23:31:50.771Z,97112.06
2022-11-16T23:34:17.377Z,97113.19
2022-11-16T23:36:43.913Z,97102.75
2022-11-16T23:39:10.629Z,97084.97
2022-11-16T23:41:55.433Z,97079.25
2022-11-16T23:44:21.937Z,97083.50
2022-11-16T23:46:48.470Z,97086.97
2022-11-16T23:49:15.037Z,97083.94
2022-11-16T23:51:41.662Z,97076.63
2022-11-16T23:54:08.172Z,97075.13
2022-11-16T23:56:34.697Z,97064.34
2022-11-16T23:59:01.215Z,97072.09
